sensor_id;sensor_type;location;lat;lon;timestamp;P1;durP1;ratioP1;P2;durP2;ratioP2
75667;SDS011;64266;48.798;44.756;2023-11-19T00:02:25;11.68;;;5.53;;
75667;SDS011;64266;48.798;44.756;2023-11-19T00:07:28;12.45;;;5.53;;
75667;SDS011;64266;48.798;44.756;2023-11-19T00:12:37;11.27;;;5.57;;
75667;SDS011;64266;48.798;44.756;2023-11-19T00:17:42;15.18;;;6.72;;
75667;SDS011;64266;48.798;44.756;2023-11-19T00:22:51;9.68;;;5.47;;
75667;SDS011;64266;48.798;44.756;2023-11-19T00:27:54;14.18;;;6.00;;
75667;SDS011;64266;48.798;44.756;2023-11-19T00:32:59;10.85;;;5.82;;
75667;SDS011;64266;48.798;44.756;2023-11-19T00:38:02;11.27;;;6.18;;
75667;SDS011;64266;48.798;44.756;2023-11-19T00:43:06;13.38;;;6.93;;
75667;SDS011;64266;48.798;44.756;2023-11-19T00:48:10;10.38;;;5.72;;
75667;SDS011;64266;48.798;44.756;2023-11-19T00:53:13;12.02;;;6.25;;
75667;SDS011;64266;48.798;44.756;2023-11-19T00:58:16;8.73;;;4.90;;
75667;SDS011;64266;48.798;44.756;2023-11-19T01:03:20;12.88;;;5.55;;
75667;SDS011;64266;48.798;44.756;2023-11-19T01:08:23;8.70;;;4.40;;
75667;SDS011;64266;48.798;44.756;2023-11-19T01:13:26;10.82;;;5.07;;
75667;SDS011;64266;48.798;44.756;2023-11-19T01:18:30;10.23;;;5.18;;
75667;SDS011;64266;48.798;44.756;2023-11-19T01:23:33;13.45;;;6.13;;
75667;SDS011;64266;48.798;44.756;2023-11-19T01:28:36;11.57;;;5.80;;
75667;SDS011;64266;48.798;44.756;2023-11-19T01:33:53;12.38;;;5.95;;
75667;SDS011;64266;48.798;44.756;2023-11-19T01:38:56;12.23;;;5.70;;
75667;SDS011;64266;48.798;44.756;2023-11-19T01:44:00;9.93;;;4.20;;
75667;SDS011;64266;48.798;44.756;2023-11-19T01:49:03;10.25;;;5.93;;
75667;SDS011;64266;48.798;44.756;2023-11-19T01:54:07;9.93;;;5.25;;
75667;SDS011;64266;48.798;44.756;2023-11-19T01:59:12;10.52;;;4.88;;
75667;SDS011;64266;48.798;44.756;2023-11-19T02:04:16;9.13;;;5.00;;
75667;SDS011;64266;48.798;44.756;2023-11-19T02:09:20;9.30;;;5.00;;
75667;SDS011;64266;48.798;44.756;2023-11-19T02:14:23;9.65;;;4.60;;
75667;SDS011;64266;48.798;44.756;2023-11-19T02:19:28;9.50;;;4.18;;
75667;SDS011;64266;48.798;44.756;2023-11-19T02:24:31;9.55;;;4.53;;
75667;SDS011;64266;48.798;44.756;2023-11-19T02:29:37;9.43;;;4.68;;
75667;SDS011;64266;48.798;44.756;2023-11-19T02:34:40;8.98;;;4.15;;
75667;SDS011;64266;48.798;44.756;2023-11-19T02:39:43;8.77;;;4.25;;
75667;SDS011;64266;48.798;44.756;2023-11-19T02:44:46;9.90;;;4.63;;
75667;SDS011;64266;48.798;44.756;2023-11-19T02:49:51;9.70;;;4.60;;
75667;SDS011;64266;48.798;44.756;2023-11-19T02:54:55;10.80;;;3.90;;
75667;SDS011;64266;48.798;44.756;2023-11-19T02:59:59;10.68;;;5.13;;
75667;SDS011;64266;48.798;44.756;2023-11-19T03:05:05;8.68;;;4.63;;
75667;SDS011;64266;48.798;44.756;2023-11-19T03:10:12;11.25;;;4.57;;
75667;SDS011;64266;48.798;44.756;2023-11-19T03:15:19;9.13;;;4.63;;
75667;SDS011;64266;48.798;44.756;2023-11-19T03:20:23;10.40;;;5.15;;
75667;SDS011;64266;48.798;44.756;2023-11-19T03:25:30;9.32;;;4.53;;
75667;SDS011;64266;48.798;44.756;2023-11-19T03:30:36;8.63;;;4.03;;
75667;SDS011;64266;48.798;44.756;2023-11-19T03:35:39;8.73;;;4.45;;
75667;SDS011;64266;48.798;44.756;2023-11-19T03:40:43;8.73;;;4.78;;
75667;SDS011;64266;48.798;44.756;2023-11-19T03:45:47;8.48;;;4.32;;
75667;SDS011;64266;48.798;44.756;2023-11-19T03:50:51;9.30;;;4.40;;
75667;SDS011;64266;48.798;44.756;2023-11-19T03:55:54;9.07;;;4.10;;
75667;SDS011;64266;48.798;44.756;2023-11-19T04:00:57;8.65;;;4.15;;
75667;SDS011;64266;48.798;44.756;2023-11-19T04:06:00;7.68;;;3.35;;
75667;SDS011;64266;48.798;44.756;2023-11-19T04:11:03;6.93;;;3.70;;
75667;SDS011;64266;48.798;44.756;2023-11-19T04:16:09;8.20;;;3.70;;
75667;SDS011;64266;48.798;44.756;2023-11-19T04:21:12;7.15;;;3.13;;
75667;SDS011;64266;48.798;44.756;2023-11-19T04:26:15;7.00;;;3.20;;
75667;SDS011;64266;48.798;44.756;2023-11-19T04:31:18;7.10;;;3.40;;
75667;SDS011;64266;48.798;44.756;2023-11-19T04:36:21;6.82;;;3.53;;
75667;SDS011;64266;48.798;44.756;2023-11-19T04:41:26;7.45;;;3.85;;
75667;SDS011;64266;48.798;44.756;2023-11-19T04:46:30;8.38;;;3.53;;
75667;SDS011;64266;48.798;44.756;2023-11-19T04:51:37;8.93;;;3.30;;
75667;SDS011;64266;48.798;44.756;2023-11-19T04:56:45;7.45;;;3.47;;
75667;SDS011;64266;48.798;44.756;2023-11-19T05:01:49;6.85;;;3.65;;
75667;SDS011;64266;48.798;44.756;2023-11-19T05:06:53;9.77;;;2.95;;
75667;SDS011;64266;48.798;44.756;2023-11-19T05:11:55;6.63;;;2.80;;
75667;SDS011;64266;48.798;44.756;2023-11-19T05:16:59;10.88;;;4.43;;
75667;SDS011;64266;48.798;44.756;2023-11-19T05:22:02;8.00;;;4.32;;
75667;SDS011;64266;48.798;44.756;2023-11-19T05:27:05;6.78;;;3.33;;
75667;SDS011;64266;48.798;44.756;2023-11-19T05:32:09;7.30;;;3.50;;
75667;SDS011;64266;48.798;44.756;2023-11-19T05:37:12;7.07;;;3.50;;
75667;SDS011;64266;48.798;44.756;2023-11-19T05:42:15;5.68;;;2.70;;
75667;SDS011;64266;48.798;44.756;2023-11-19T05:47:19;6.65;;;2.88;;
75667;SDS011;64266;48.798;44.756;2023-11-19T05:52:22;6.15;;;2.72;;
75667;SDS011;64266;48.798;44.756;2023-11-19T05:57:26;6.97;;;2.60;;
75667;SDS011;64266;48.798;44.756;2023-11-19T06:02:34;8.68;;;2.45;;
75667;SDS011;64266;48.798;44.756;2023-11-19T06:07:37;7.53;;;2.80;;
75667;SDS011;64266;48.798;44.756;2023-11-19T06:12:41;7.18;;;3.33;;
75667;SDS011;64266;48.798;44.756;2023-11-19T06:17:44;7.63;;;3.15;;
75667;SDS011;64266;48.798;44.756;2023-11-19T06:22:48;8.20;;;3.63;;
75667;SDS011;64266;48.798;44.756;2023-11-19T06:27:52;6.88;;;3.50;;
75667;SDS011;64266;48.798;44.756;2023-11-19T06:32:55;10.48;;;4.85;;
75667;SDS011;64266;48.798;44.756;2023-11-19T06:37:59;10.23;;;4.70;;
75667;SDS011;64266;48.798;44.756;2023-11-19T06:43:02;12.88;;;4.32;;
75667;SDS011;64266;48.798;44.756;2023-11-19T06:48:06;11.02;;;4.50;;
75667;SDS011;64266;48.798;44.756;2023-11-19T06:53:09;8.48;;;3.95;;
75667;SDS011;64266;48.798;44.756;2023-11-19T06:58:12;6.65;;;3.53;;
75667;SDS011;64266;48.798;44.756;2023-11-19T07:03:16;7.25;;;3.45;;
75667;SDS011;64266;48.798;44.756;2023-11-19T07:08:19;8.18;;;3.58;;
75667;SDS011;64266;48.798;44.756;2023-11-19T07:13:22;11.50;;;4.75;;
75667;SDS011;64266;48.798;44.756;2023-11-19T07:18:25;14.75;;;6.30;;
75667;SDS011;64266;48.798;44.756;2023-11-19T07:23:29;6.25;;;2.88;;
75667;SDS011;64266;48.798;44.756;2023-11-19T07:28:32;7.50;;;4.07;;
75667;SDS011;64266;48.798;44.756;2023-11-19T07:33:35;10.52;;;5.00;;
75667;SDS011;64266;48.798;44.756;2023-11-19T07:38:38;6.43;;;2.80;;
75667;SDS011;64266;48.798;44.756;2023-11-19T07:43:45;10.70;;;4.90;;
75667;SDS011;64266;48.798;44.756;2023-11-19T07:48:52;7.88;;;3.17;;
75667;SDS011;64266;48.798;44.756;2023-11-19T07:53:55;8.80;;;3.47;;
75667;SDS011;64266;48.798;44.756;2023-11-19T07:58:58;11.15;;;3.88;;
75667;SDS011;64266;48.798;44.756;2023-11-19T08:04:02;8.63;;;3.63;;
75667;SDS011;64266;48.798;44.756;2023-11-19T08:09:05;7.82;;;3.58;;
75667;SDS011;64266;48.798;44.756;2023-11-19T08:14:16;11.65;;;3.95;;
75667;SDS011;64266;48.798;44.756;2023-11-19T08:19:19;7.80;;;2.92;;
75667;SDS011;64266;48.798;44.756;2023-11-19T08:24:23;7.05;;;2.95;;
75667;SDS011;64266;48.798;44.756;2023-11-19T08:29:26;6.70;;;2.40;;
75667;SDS011;64266;48.798;44.756;2023-11-19T08:34:30;9.10;;;3.13;;
75667;SDS011;64266;48.798;44.756;2023-11-19T08:39:33;6.32;;;2.65;;
75667;SDS011;64266;48.798;44.756;2023-11-19T08:50:06;6.15;;;2.40;;
75667;SDS011;64266;48.798;44.756;2023-11-19T08:55:11;9.27;;;3.63;;
75667;SDS011;64266;48.798;44.756;2023-11-19T09:00:16;9.35;;;3.75;;
75667;SDS011;64266;48.798;44.756;2023-11-19T09:05:20;9.50;;;3.50;;
75667;SDS011;64266;48.798;44.756;2023-11-19T09:10:23;8.13;;;3.17;;
75667;SDS011;64266;48.798;44.756;2023-11-19T09:15:26;6.43;;;2.83;;
75667;SDS011;64266;48.798;44.756;2023-11-19T09:20:30;5.32;;;1.98;;
75667;SDS011;64266;48.798;44.756;2023-11-19T09:25:40;7.53;;;2.90;;
75667;SDS011;64266;48.798;44.756;2023-11-19T09:30:47;8.73;;;3.63;;
75667;SDS011;64266;48.798;44.756;2023-11-19T09:35:50;12.38;;;4.90;;
75667;SDS011;64266;48.798;44.756;2023-11-19T09:40:54;6.32;;;2.90;;
75667;SDS011;64266;48.798;44.756;2023-11-19T09:45:57;9.52;;;3.55;;
75667;SDS011;64266;48.798;44.756;2023-11-19T09:51:08;6.75;;;2.47;;
75667;SDS011;64266;48.798;44.756;2023-11-19T09:56:12;4.95;;;2.65;;
75667;SDS011;64266;48.798;44.756;2023-11-19T10:01:17;8.25;;;3.45;;
75667;SDS011;64266;48.798;44.756;2023-11-19T10:06:30;8.52;;;4.07;;
75667;SDS011;64266;48.798;44.756;2023-11-19T10:11:33;6.88;;;3.50;;
75667;SDS011;64266;48.798;44.756;2023-11-19T10:16:37;8.30;;;3.25;;
75667;SDS011;64266;48.798;44.756;2023-11-19T10:21:41;9.77;;;3.72;;
75667;SDS011;64266;48.798;44.756;2023-11-19T10:26:44;6.55;;;2.40;;
75667;SDS011;64266;48.798;44.756;2023-11-19T10:31:57;6.88;;;2.30;;
75667;SDS011;64266;48.798;44.756;2023-11-19T10:37:28;7.40;;;2.80;;
75667;SDS011;64266;48.798;44.756;2023-11-19T10:42:35;4.20;;;1.70;;
75667;SDS011;64266;48.798;44.756;2023-11-19T10:47:39;7.80;;;2.70;;
75667;SDS011;64266;48.798;44.756;2023-11-19T10:52:44;7.55;;;2.97;;
75667;SDS011;64266;48.798;44.756;2023-11-19T10:57:50;5.25;;;1.80;;
75667;SDS011;64266;48.798;44.756;2023-11-19T11:02:55;3.95;;;1.63;;
75667;SDS011;64266;48.798;44.756;2023-11-19T11:08:02;6.10;;;1.80;;
75667;SDS011;64266;48.798;44.756;2023-11-19T11:13:08;2.92;;;1.13;;
75667;SDS011;64266;48.798;44.756;2023-11-19T11:18:12;5.50;;;2.20;;
75667;SDS011;64266;48.798;44.756;2023-11-19T11:34:18;3.75;;;1.45;;
75667;SDS011;64266;48.798;44.756;2023-11-19T11:39:42;7.80;;;2.45;;
75667;SDS011;64266;48.798;44.756;2023-11-19T11:44:58;6.80;;;2.00;;
75667;SDS011;64266;48.798;44.756;2023-11-19T11:50:15;3.55;;;1.63;;
75667;SDS011;64266;48.798;44.756;2023-11-19T12:00:53;4.13;;;1.40;;
75667;SDS011;64266;48.798;44.756;2023-11-19T12:05:57;2.95;;;1.15;;
75667;SDS011;64266;48.798;44.756;2023-11-19T12:11:00;3.08;;;0.85;;
75667;SDS011;64266;48.798;44.756;2023-11-19T12:21:09;3.92;;;1.05;;
75667;SDS011;64266;48.798;44.756;2023-11-19T12:31:38;2.40;;;0.90;;
75667;SDS011;64266;48.798;44.756;2023-11-19T12:36:47;2.47;;;1.00;;
75667;SDS011;64266;48.798;44.756;2023-11-19T12:41:53;1.80;;;0.80;;
75667;SDS011;64266;48.798;44.756;2023-11-19T12:52:12;2.90;;;1.17;;
75667;SDS011;64266;48.798;44.756;2023-11-19T12:57:16;4.57;;;1.35;;
75667;SDS011;64266;48.798;44.756;2023-11-19T13:02:21;3.10;;;1.30;;
75667;SDS011;64266;48.798;44.756;2023-11-19T13:07:24;3.40;;;1.23;;
75667;SDS011;64266;48.798;44.756;2023-11-19T13:12:27;3.40;;;1.10;;
75667;SDS011;64266;48.798;44.756;2023-11-19T13:17:31;6.38;;;1.60;;
75667;SDS011;64266;48.798;44.756;2023-11-19T13:22:34;2.35;;;1.08;;
75667;SDS011;64266;48.798;44.756;2023-11-19T13:27:37;3.30;;;1.30;;
75667;SDS011;64266;48.798;44.756;2023-11-19T13:32:41;3.92;;;1.33;;
75667;SDS011;64266;48.798;44.756;2023-11-19T13:37:47;2.97;;;0.98;;
75667;SDS011;64266;48.798;44.756;2023-11-19T13:42:51;5.00;;;1.35;;
75667;SDS011;64266;48.798;44.756;2023-11-19T13:47:54;4.95;;;1.13;;
75667;SDS011;64266;48.798;44.756;2023-11-19T13:52:57;2.10;;;1.00;;
75667;SDS011;64266;48.798;44.756;2023-11-19T13:58:00;2.10;;;0.70;;
75667;SDS011;64266;48.798;44.756;2023-11-19T14:03:04;4.47;;;1.40;;
75667;SDS011;64266;48.798;44.756;2023-11-19T14:08:07;3.10;;;1.13;;
75667;SDS011;64266;48.798;44.756;2023-11-19T14:13:26;6.35;;;2.10;;
75667;SDS011;64266;48.798;44.756;2023-11-19T14:18:29;4.70;;;1.20;;
75667;SDS011;64266;48.798;44.756;2023-11-19T14:23:32;3.28;;;1.13;;
75667;SDS011;64266;48.798;44.756;2023-11-19T14:28:35;7.47;;;2.15;;
75667;SDS011;64266;48.798;44.756;2023-11-19T14:33:56;3.20;;;1.10;;
75667;SDS011;64266;48.798;44.756;2023-11-19T14:39:00;4.70;;;1.30;;
75667;SDS011;64266;48.798;44.756;2023-11-19T14:44:03;4.38;;;1.40;;
75667;SDS011;64266;48.798;44.756;2023-11-19T14:49:07;3.30;;;1.30;;
75667;SDS011;64266;48.798;44.756;2023-11-19T14:54:10;2.38;;;0.95;;
75667;SDS011;64266;48.798;44.756;2023-11-19T14:59:13;2.95;;;1.20;;
75667;SDS011;64266;48.798;44.756;2023-11-19T15:04:17;3.28;;;1.25;;
75667;SDS011;64266;48.798;44.756;2023-11-19T15:09:20;2.97;;;1.20;;
75667;SDS011;64266;48.798;44.756;2023-11-19T15:14:23;3.17;;;1.02;;
75667;SDS011;64266;48.798;44.756;2023-11-19T15:19:26;2.70;;;0.77;;
75667;SDS011;64266;48.798;44.756;2023-11-19T15:24:30;1.77;;;0.77;;
75667;SDS011;64266;48.798;44.756;2023-11-19T15:29:33;2.97;;;0.80;;
75667;SDS011;64266;48.798;44.756;2023-11-19T15:34:37;2.45;;;1.02;;
75667;SDS011;64266;48.798;44.756;2023-11-19T15:39:42;3.05;;;0.88;;
75667;SDS011;64266;48.798;44.756;2023-11-19T15:44:45;5.00;;;1.10;;
75667;SDS011;64266;48.798;44.756;2023-11-19T15:49:48;5.28;;;1.83;;
75667;SDS011;64266;48.798;44.756;2023-11-19T15:54:52;4.32;;;0.90;;
75667;SDS011;64266;48.798;44.756;2023-11-19T15:59:55;2.50;;;0.70;;
75667;SDS011;64266;48.798;44.756;2023-11-19T16:04:58;2.92;;;0.60;;
75667;SDS011;64266;48.798;44.756;2023-11-19T16:10:01;2.35;;;0.93;;
75667;SDS011;64266;48.798;44.756;2023-11-19T16:15:12;1.45;;;0.50;;
75667;SDS011;64266;48.798;44.756;2023-11-19T16:20:36;1.55;;;0.70;;
75667;SDS011;64266;48.798;44.756;2023-11-19T16:25:39;1.73;;;0.80;;
75667;SDS011;64266;48.798;44.756;2023-11-19T16:30:42;1.52;;;0.63;;
75667;SDS011;64266;48.798;44.756;2023-11-19T16:35:45;3.22;;;1.13;;
75667;SDS011;64266;48.798;44.756;2023-11-19T16:40:48;4.18;;;1.42;;
75667;SDS011;64266;48.798;44.756;2023-11-19T16:45:54;1.88;;;0.90;;
75667;SDS011;64266;48.798;44.756;2023-11-19T16:50:57;6.43;;;0.93;;
75667;SDS011;64266;48.798;44.756;2023-11-19T16:56:04;4.90;;;1.13;;
75667;SDS011;64266;48.798;44.756;2023-11-19T17:01:12;4.50;;;1.60;;
75667;SDS011;64266;48.798;44.756;2023-11-19T17:06:16;3.25;;;1.25;;
75667;SDS011;64266;48.798;44.756;2023-11-19T17:11:21;2.90;;;1.08;;
75667;SDS011;64266;48.798;44.756;2023-11-19T17:16:24;3.13;;;1.25;;
75667;SDS011;64266;48.798;44.756;2023-11-19T17:21:27;5.65;;;1.10;;
75667;SDS011;64266;48.798;44.756;2023-11-19T17:26:30;3.10;;;1.23;;
75667;SDS011;64266;48.798;44.756;2023-11-19T17:31:36;1.95;;;1.02;;
75667;SDS011;64266;48.798;44.756;2023-11-19T17:36:39;3.45;;;1.27;;
75667;SDS011;64266;48.798;44.756;2023-11-19T17:41:42;2.38;;;0.90;;
75667;SDS011;64266;48.798;44.756;2023-11-19T17:46:45;4.10;;;1.10;;
75667;SDS011;64266;48.798;44.756;2023-11-19T17:51:48;9.05;;;1.38;;
75667;SDS011;64266;48.798;44.756;2023-11-19T17:56:51;3.80;;;1.42;;
75667;SDS011;64266;48.798;44.756;2023-11-19T18:01:54;2.75;;;1.13;;
75667;SDS011;64266;48.798;44.756;2023-11-19T18:07:02;3.45;;;1.42;;
75667;SDS011;64266;48.798;44.756;2023-11-19T18:12:06;7.72;;;2.00;;
75667;SDS011;64266;48.798;44.756;2023-11-19T18:17:17;2.30;;;1.10;;
75667;SDS011;64266;48.798;44.756;2023-11-19T18:22:20;3.35;;;1.27;;
75667;SDS011;64266;48.798;44.756;2023-11-19T18:27:23;3.22;;;1.05;;
75667;SDS011;64266;48.798;44.756;2023-11-19T18:32:26;3.30;;;1.17;;
75667;SDS011;64266;48.798;44.756;2023-11-19T18:37:30;5.53;;;1.33;;
75667;SDS011;64266;48.798;44.756;2023-11-19T18:42:33;4.50;;;1.48;;
75667;SDS011;64266;48.798;44.756;2023-11-19T18:47:38;3.60;;;1.77;;
75667;SDS011;64266;48.798;44.756;2023-11-19T18:52:41;6.38;;;1.88;;
75667;SDS011;64266;48.798;44.756;2023-11-19T18:57:44;5.63;;;1.98;;
75667;SDS011;64266;48.798;44.756;2023-11-19T19:02:47;4.60;;;1.50;;
75667;SDS011;64266;48.798;44.756;2023-11-19T19:07:55;5.47;;;1.80;;
75667;SDS011;64266;48.798;44.756;2023-11-19T19:13:00;5.75;;;2.35;;
75667;SDS011;64266;48.798;44.756;2023-11-19T19:18:05;5.72;;;1.50;;
75667;SDS011;64266;48.798;44.756;2023-11-19T19:23:09;5.35;;;1.70;;
75667;SDS011;64266;48.798;44.756;2023-11-19T19:28:13;4.85;;;1.52;;
75667;SDS011;64266;48.798;44.756;2023-11-19T19:33:18;4.07;;;1.88;;
75667;SDS011;64266;48.798;44.756;2023-11-19T19:38:22;4.13;;;1.75;;
75667;SDS011;64266;48.798;44.756;2023-11-19T19:43:25;4.40;;;1.98;;
75667;SDS011;64266;48.798;44.756;2023-11-19T19:48:29;3.53;;;1.85;;
75667;SDS011;64266;48.798;44.756;2023-11-19T19:53:32;4.07;;;1.77;;
75667;SDS011;64266;48.798;44.756;2023-11-19T19:58:36;4.00;;;1.98;;
75667;SDS011;64266;48.798;44.756;2023-11-19T20:03:42;3.40;;;1.48;;
75667;SDS011;64266;48.798;44.756;2023-11-19T20:08:45;4.25;;;2.05;;
75667;SDS011;64266;48.798;44.756;2023-11-19T20:13:50;4.32;;;1.88;;
75667;SDS011;64266;48.798;44.756;2023-11-19T20:18:52;3.72;;;1.88;;
75667;SDS011;64266;48.798;44.756;2023-11-19T20:23:55;6.78;;;2.30;;
75667;SDS011;64266;48.798;44.756;2023-11-19T20:28:59;6.22;;;1.92;;
75667;SDS011;64266;48.798;44.756;2023-11-19T20:34:05;4.85;;;2.45;;
75667;SDS011;64266;48.798;44.756;2023-11-19T20:39:09;4.45;;;1.98;;
75667;SDS011;64266;48.798;44.756;2023-11-19T20:44:15;4.53;;;2.10;;
75667;SDS011;64266;48.798;44.756;2023-11-19T20:49:18;4.93;;;1.88;;
75667;SDS011;64266;48.798;44.756;2023-11-19T20:54:23;5.20;;;2.58;;
75667;SDS011;64266;48.798;44.756;2023-11-19T20:59:28;3.95;;;1.80;;
75667;SDS011;64266;48.798;44.756;2023-11-19T21:04:31;6.88;;;2.30;;
75667;SDS011;64266;48.798;44.756;2023-11-19T21:09:35;5.45;;;2.58;;
75667;SDS011;64266;48.798;44.756;2023-11-19T21:14:37;5.95;;;2.38;;
75667;SDS011;64266;48.798;44.756;2023-11-19T21:19:41;4.95;;;2.38;;
75667;SDS011;64266;48.798;44.756;2023-11-19T21:24:48;4.93;;;2.22;;
75667;SDS011;64266;48.798;44.756;2023-11-19T21:29:51;6.68;;;2.55;;
75667;SDS011;64266;48.798;44.756;2023-11-19T21:34:54;6.88;;;2.50;;
75667;SDS011;64266;48.798;44.756;2023-11-19T21:39:57;8.50;;;3.35;;
75667;SDS011;64266;48.798;44.756;2023-11-19T21:45:00;9.52;;;2.90;;
75667;SDS011;64266;48.798;44.756;2023-11-19T21:50:05;9.20;;;3.50;;
75667;SDS011;64266;48.798;44.756;2023-11-19T21:55:09;8.20;;;2.65;;
75667;SDS011;64266;48.798;44.756;2023-11-19T22:00:12;12.73;;;3.00;;
75667;SDS011;64266;48.798;44.756;2023-11-19T22:05:18;7.80;;;2.58;;
75667;SDS011;64266;48.798;44.756;2023-11-19T22:10:24;8.23;;;2.88;;
75667;SDS011;64266;48.798;44.756;2023-11-19T22:15:27;6.72;;;2.58;;
75667;SDS011;64266;48.798;44.756;2023-11-19T22:20:30;7.05;;;2.60;;
75667;SDS011;64266;48.798;44.756;2023-11-19T22:25:37;6.28;;;2.53;;
75667;SDS011;64266;48.798;44.756;2023-11-19T22:30:40;4.00;;;1.80;;
75667;SDS011;64266;48.798;44.756;2023-11-19T22:35:44;6.47;;;2.75;;
75667;SDS011;64266;48.798;44.756;2023-11-19T22:40:47;5.05;;;2.60;;
75667;SDS011;64266;48.798;44.756;2023-11-19T22:45:50;6.43;;;2.50;;
75667;SDS011;64266;48.798;44.756;2023-11-19T22:50:53;10.05;;;3.10;;
75667;SDS011;64266;48.798;44.756;2023-11-19T22:55:56;5.45;;;2.47;;
75667;SDS011;64266;48.798;44.756;2023-11-19T23:01:00;5.95;;;2.42;;
75667;SDS011;64266;48.798;44.756;2023-11-19T23:06:05;5.90;;;2.90;;
75667;SDS011;64266;48.798;44.756;2023-11-19T23:11:08;6.05;;;2.70;;
75667;SDS011;64266;48.798;44.756;2023-11-19T23:16:11;4.47;;;2.05;;
75667;SDS011;64266;48.798;44.756;2023-11-19T23:21:15;23.17;;;3.47;;
75667;SDS011;64266;48.798;44.756;2023-11-19T23:26:20;6.07;;;3.05;;
75667;SDS011;64266;48.798;44.756;2023-11-19T23:31:23;9.27;;;2.72;;
75667;SDS011;64266;48.798;44.756;2023-11-19T23:36:26;6.40;;;2.65;;
75667;SDS011;64266;48.798;44.756;2023-11-19T23:41:30;7.80;;;2.28;;
75667;SDS011;64266;48.798;44.756;2023-11-19T23:46:33;6.78;;;3.05;;
75667;SDS011;64266;48.798;44.756;2023-11-19T23:51:37;4.88;;;2.88;;
75667;SDS011;64266;48.798;44.756;2023-11-19T23:56:43;7.70;;;2.97;;
